createdAt,value
2022-10-06T00:00:37.249Z,98450.38
2022-10-06T00:03:03.879Z,98451.13
2022-10-06T00:05:31.145Z,98448.47
2022-10-06T00:07:57.754Z,98456.66
2022-10-06T00:10:24.393Z,98457.56
2022-10-06T00:12:51.342Z,98451.00
2022-10-06T00:15:19.676Z,98450.16
2022-10-06T00:17:46.449Z,98449.19
2022-10-06T00:20:12.934Z,98449.41
2022-10-06T00:22:41.396Z,98447.34
2022-10-06T00:25:08.629Z,98448.84
2022-10-06T00:27:47.097Z,98445.81
2022-10-06T00:30:15.066Z,98448.06
2022-10-06T00:32:41.526Z,98453.13
2022-10-06T00:35:09.162Z,98457.66
2022-10-06T00:37:36.980Z,98447.78
2022-10-06T00:40:09.082Z,98456.72
2022-10-06T00:42:48.517Z,98454.44
2022-10-06T00:45:16.326Z,98449.94
2022-10-06T00:47:42.762Z,98449.38
2022-10-06T00:50:11.715Z,98452.69
2022-10-06T00:52:39.385Z,98452.78
2022-10-06T00:55:09.388Z,98445.53
2022-10-06T00:57:37.358Z,98460.28
2022-10-06T01:00:06.090Z,98454.91
2022-10-06T01:02:37.288Z,98445.25
2022-10-06T01:05:05.282Z,98451.34
2022-10-06T01:07:32.261Z,98445.84
2022-10-06T01:09:59.173Z,98441.69
2022-10-06T01:12:27.597Z,98438.59
2022-10-06T01:14:54.407Z,98447.25
2022-10-06T01:17:36.322Z,98439.72
2022-10-06T01:20:09.010Z,98438.41
2022-10-06T01:22:35.752Z,98444.56
2022-10-06T01:25:03.217Z,98441.19
2022-10-06T01:27:30.781Z,98436.38
2022-10-06T01:29:57.833Z,98433.22
2022-10-06T01:32:25.503Z,98444.91
2022-10-06T01:34:52.928Z,98443.09
2022-10-06T01:37:21.096Z,98445.03
2022-10-06T01:39:47.683Z,98438.69
2022-10-06T01:42:14.123Z,98445.88
2022-10-06T01:44:40.655Z,98435.00
2022-10-06T01:47:07.535Z,98440.41
2022-10-06T01:49:34.226Z,98437.69
2022-10-06T01:52:01.019Z,98436.97
2022-10-06T01:54:27.520Z,98426.28
2022-10-06T01:56:55.398Z,98430.44
2022-10-06T01:59:21.890Z,98431.16
2022-10-06T02:01:48.583Z,98432.38
2022-10-06T02:04:15.165Z,98433.81
2022-10-06T02:06:41.877Z,98440.09
2022-10-06T02:09:08.773Z,98432.88
2022-10-06T02:11:38.666Z,98441.91
2022-10-06T02:14:05.398Z,98438.06
2022-10-06T02:16:32.301Z,98441.97
2022-10-06T02:18:58.758Z,98442.84
2022-10-06T02:21:25.333Z,98447.72
2022-10-06T02:23:51.818Z,98444.66
2022-10-06T02:26:19.145Z,98434.84
2022-10-06T02:28:47.416Z,98432.88
2022-10-06T02:31:18.432Z,98439.63
2022-10-06T02:33:45.349Z,98438.81
2022-10-06T02:36:13.413Z,98436.72
2022-10-06T02:38:41.574Z,98433.94
2022-10-06T02:41:10.046Z,98443.22
2022-10-06T02:43:37.361Z,98439.31
2022-10-06T02:46:13.813Z,98437.72
2022-10-06T02:48:45.885Z,98444.16
2022-10-06T02:51:15.437Z,98450.28
2022-10-06T02:53:43.982Z,98448.81
2022-10-06T02:56:11.678Z,98460.22
2022-10-06T02:58:42.787Z,98457.75
2022-10-06T03:01:17.148Z,98463.28
2022-10-06T03:03:43.875Z,98474.00
2022-10-06T03:06:23.812Z,98476.47
2022-10-06T03:08:58.555Z,98478.88
2022-10-06T03:11:26.755Z,98467.66
2022-10-06T03:13:53.462Z,98477.19
2022-10-06T03:16:21.562Z,98467.28
2022-10-06T03:18:49.953Z,98474.97
2022-10-06T03:21:20.646Z,98470.59
2022-10-06T03:23:48.055Z,98476.81
2022-10-06T03:26:15.666Z,98470.94
2022-10-06T03:28:42.232Z,98474.00
2022-10-06T03:31:08.979Z,98467.78
2022-10-06T03:33:35.528Z,98467.19
2022-10-06T03:36:03.730Z,98477.56
2022-10-06T03:38:31.858Z,98474.50
2022-10-06T03:41:02.267Z,98479.97
2022-10-06T03:43:28.718Z,98485.63
2022-10-06T03:45:56.796Z,98487.66
2022-10-06T03:48:23.950Z,98492.81
2022-10-06T03:50:54.436Z,98491.34
2022-10-06T03:53:25.513Z,98499.16
2022-10-06T03:55:59.606Z,98497.31
2022-10-06T03:58:27.245Z,98509.91
2022-10-06T04:01:01.049Z,98504.63
2022-10-06T04:03:27.882Z,98520.38
2022-10-06T04:05:56.115Z,98507.81
2022-10-06T04:08:24.626Z,98514.28
2022-10-06T04:10:51.357Z,98524.94
2022-10-06T04:13:21.381Z,98517.69
2022-10-06T04:15:48.993Z,98519.56
2022-10-06T04:18:15.946Z,98522.72
2022-10-06T04:20:42.582Z,98523.34
2022-10-06T04:23:09.360Z,98527.94
2022-10-06T04:25:35.812Z,98525.53
2022-10-06T04:28:02.444Z,98525.53
2022-10-06T04:30:29.279Z,98528.44
2022-10-06T04:32:55.737Z,98528.22
2022-10-06T04:35:23.304Z,98530.81
2022-10-06T04:37:50.233Z,98532.81
2022-10-06T04:40:16.874Z,98531.00
2022-10-06T04:42:43.459Z,98532.59
2022-10-06T04:45:13.666Z,98535.16
2022-10-06T04:47:41.841Z,98532.94
2022-10-06T04:50:09.474Z,98533.56
2022-10-06T04:52:36.711Z,98535.25
2022-10-06T04:55:03.387Z,98536.47
2022-10-06T04:57:29.861Z,98533.91
2022-10-06T05:00:15.333Z,98538.69
2022-10-06T05:02:44.694Z,98535.13
2022-10-06T05:05:11.210Z,98542.81
2022-10-06T05:07:37.730Z,98542.00
2022-10-06T05:10:04.370Z,98547.50
2022-10-06T05:12:31.827Z,98542.63
2022-10-06T05:14:58.537Z,98542.88
2022-10-06T05:17:25.336Z,98555.56
2022-10-06T05:19:53.769Z,98556.69
2022-10-06T05:22:20.209Z,98551.66
2022-10-06T05:24:46.641Z,98557.00
2022-10-06T05:27:13.113Z,98565.34
2022-10-06T05:29:39.711Z,98571.84
2022-10-06T05:32:08.015Z,98569.50
2022-10-06T05:34:36.174Z,98572.66
2022-10-06T05:37:02.595Z,98575.59
2022-10-06T05:39:29.070Z,98574.53
2022-10-06T05:41:57.401Z,98578.06
2022-10-06T05:44:24.737Z,98583.34
2022-10-06T05:46:51.353Z,98584.19
2022-10-06T05:49:18.834Z,98596.28
2022-10-06T05:51:53.155Z,98596.41
2022-10-06T05:54:24.279Z,98603.00
2022-10-06T05:56:50.718Z,98601.44
2022-10-06T05:59:17.303Z,98608.38
2022-10-06T06:01:44.264Z,98605.94
2022-10-06T06:04:18.211Z,98596.03
2022-10-06T06:06:54.294Z,98611.16
2022-10-06T06:09:23.235Z,98607.94
2022-10-06T06:11:54.446Z,98616.34
2022-10-06T06:14:47.980Z,98622.59
2022-10-06T06:17:18.969Z,98628.25
2022-10-06T06:19:45.670Z,98634.53
2022-10-06T06:22:12.391Z,98634.44
2022-10-06T06:24:42.128Z,98631.03
2022-10-06T06:27:09.693Z,98638.28
2022-10-06T06:29:36.125Z,98639.72
2022-10-06T06:32:02.979Z,98630.00
2022-10-06T06:34:30.038Z,98636.03
2022-10-06T06:37:01.204Z,98637.13
2022-10-06T06:39:32.005Z,98634.84
2022-10-06T06:41:58.473Z,98640.94
2022-10-06T06:44:45.126Z,98650.41
2022-10-06T06:47:20.907Z,98650.09
2022-10-06T06:49:49.947Z,98654.38
2022-10-06T06:52:16.773Z,98660.91
2022-10-06T06:54:43.264Z,98660.59
2022-10-06T06:57:13.247Z,98663.19
2022-10-06T06:59:39.991Z,98662.16
2022-10-06T07:02:09.867Z,98664.91
2022-10-06T07:04:38.391Z,98664.50
2022-10-06T07:07:07.452Z,98661.97
2022-10-06T07:09:36.209Z,98665.63
2022-10-06T07:12:06.790Z,98666.50
2022-10-06T07:14:33.289Z,98666.25
2022-10-06T07:17:19.912Z,98661.38
2022-10-06T07:20:07.797Z,98666.47
2022-10-06T07:22:53.758Z,98658.47
2022-10-06T07:25:26.221Z,98667.34
2022-10-06T07:28:00.136Z,98679.50
2022-10-06T07:30:40.658Z,98670.94
2022-10-06T07:33:11.185Z,98671.75
2022-10-06T07:35:39.133Z,98671.22
2022-10-06T07:38:08.080Z,98677.56
2022-10-06T07:40:50.494Z,98681.09
2022-10-06T07:43:23.141Z,98681.00
2022-10-06T07:45:51.217Z,98685.16
2022-10-06T07:48:31.823Z,98683.44
2022-10-06T07:51:03.149Z,98689.41
2022-10-06T07:53:36.054Z,98694.19
2022-10-06T07:56:08.789Z,98694.38
2022-10-06T07:58:41.845Z,98689.81
2022-10-06T08:01:09.784Z,98710.13
2022-10-06T08:03:40.247Z,98701.97
2022-10-06T08:06:06.924Z,98695.06
2022-10-06T08:08:37.695Z,98706.94
2022-10-06T08:11:05.229Z,98704.69
2022-10-06T08:13:34.665Z,98714.13
2022-10-06T08:16:08.454Z,98715.31
2022-10-06T08:18:46.145Z,98718.94
2022-10-06T08:21:14.210Z,98709.63
2022-10-06T08:23:42.299Z,98724.06
2022-10-06T08:26:10.159Z,98725.66
2022-10-06T08:28:37.021Z,98726.38
2022-10-06T08:31:07.286Z,98730.03
2022-10-06T08:33:35.931Z,98731.53
2022-10-06T08:36:08.595Z,98731.66
2022-10-06T08:38:36.554Z,98733.50
2022-10-06T08:41:23.291Z,98736.88
2022-10-06T08:43:59.190Z,98739.50
2022-10-06T08:46:28.178Z,98743.16
2022-10-06T08:48:54.689Z,98737.75
2022-10-06T08:51:21.187Z,98740.72
2022-10-06T08:54:05.882Z,98733.41
2022-10-06T08:56:44.965Z,98742.91
2022-10-06T08:59:12.031Z,98747.69
2022-10-06T09:01:41.962Z,98747.78
2022-10-06T09:04:10.735Z,98742.72
2022-10-06T09:06:38.045Z,98746.66
2022-10-06T09:09:25.371Z,98753.91
2022-10-06T09:12:00.103Z,98756.00
2022-10-06T09:14:33.189Z,98754.34
2022-10-06T09:17:02.889Z,98751.34
2022-10-06T09:19:55.768Z,98755.44
2022-10-06T09:22:23.099Z,98753.44
2022-10-06T09:24:56.052Z,98752.94
2022-10-06T09:27:24.283Z,98752.97
2022-10-06T09:29:51.491Z,98760.19
2022-10-06T09:32:18.919Z,98758.47
2022-10-06T09:34:52.883Z,98761.47
2022-10-06T09:37:19.415Z,98760.09
2022-10-06T09:39:48.239Z,98760.31
2022-10-06T09:42:23.915Z,98757.34
2022-10-06T09:44:50.855Z,98761.63
2022-10-06T09:47:22.716Z,98764.09
2022-10-06T09:50:11.991Z,98750.00
2022-10-06T09:52:39.186Z,98762.78
2022-10-06T09:55:13.088Z,98762.97
2022-10-06T09:57:47.326Z,98752.50
2022-10-06T10:00:43.414Z,98755.22
2022-10-06T10:03:13.750Z,98751.81
2022-10-06T10:05:46.039Z,98756.41
2022-10-06T10:08:23.864Z,98753.31
2022-10-06T10:10:51.477Z,98755.53
2022-10-06T10:13:20.182Z,98754.78
2022-10-06T10:15:58.257Z,98757.59
2022-10-06T10:18:30.298Z,98762.09
2022-10-06T10:21:01.032Z,98753.50
2022-10-06T10:23:33.367Z,98748.88
2022-10-06T10:26:02.868Z,98753.34
2022-10-06T10:28:35.587Z,98758.56
2022-10-06T10:31:09.529Z,98765.50
2022-10-06T10:33:54.002Z,98766.22
2022-10-06T10:36:40.094Z,98752.88
2022-10-06T10:39:11.530Z,98756.34
2022-10-06T10:41:42.394Z,98762.56
2022-10-06T10:44:10.242Z,98758.88
2022-10-06T10:46:40.060Z,98758.41
2022-10-06T10:49:21.075Z,98759.03
2022-10-06T10:51:50.351Z,98755.72
2022-10-06T10:54:21.315Z,98763.00
2022-10-06T10:56:49.178Z,98761.91
2022-10-06T10:59:19.527Z,98758.00
2022-10-06T11:02:05.121Z,98765.19
2022-10-06T11:04:31.803Z,98761.16
2022-10-06T11:07:04.374Z,98763.41
2022-10-06T11:09:54.141Z,98752.28
2022-10-06T11:12:55.908Z,98757.13
2022-10-06T11:15:46.039Z,98755.59
2022-10-06T11:18:28.745Z,98757.22
2022-10-06T11:20:58.192Z,98748.28
2022-10-06T11:23:31.615Z,98747.63
2022-10-06T11:26:05.112Z,98745.44
2022-10-06T11:28:39.246Z,98749.59
2022-10-06T11:31:09.115Z,98753.34
2022-10-06T11:33:41.610Z,98749.19
2022-10-06T11:36:13.783Z,98751.59
2022-10-06T11:38:44.329Z,98743.97
2022-10-06T11:41:21.235Z,98739.84
2022-10-06T11:44:23.235Z,98736.63
2022-10-06T11:46:52.532Z,98727.31
2022-10-06T11:49:34.203Z,98729.47
2022-10-06T11:52:08.334Z,98730.78
2022-10-06T11:54:44.762Z,98740.56
2022-10-06T11:57:29.409Z,98730.78
2022-10-06T12:00:17.706Z,98737.69
2022-10-06T12:02:47.453Z,98733.19
2022-10-06T12:05:54.148Z,98724.72
2022-10-06T12:08:08.545Z,98733.50
2022-10-06T12:10:35.310Z,98736.91
2022-10-06T12:13:51.359Z,98734.84
2022-10-06T12:19:22.050Z,98737.00
2022-10-06T12:21:53.196Z,98736.66
2022-10-06T12:24:28.887Z,98729.28
2022-10-06T12:27:07.623Z,98720.38
2022-10-06T12:29:38.879Z,98722.63
2022-10-06T12:32:24.198Z,98726.16
2022-10-06T12:34:57.054Z,98722.91
2022-10-06T12:37:32.761Z,98726.78
2022-10-06T12:40:18.033Z,98729.84
2022-10-06T12:42:44.497Z,98733.44
2022-10-06T12:45:16.253Z,98732.22
2022-10-06T12:47:44.169Z,98724.53
2022-10-06T12:50:22.735Z,98719.75
2022-10-06T12:53:05.456Z,98725.38
2022-10-06T12:55:40.974Z,98722.97
2022-10-06T12:58:17.942Z,98722.50
2022-10-06T13:00:44.958Z,98723.19
2022-10-06T13:03:19.259Z,98717.97
2022-10-06T13:05:50.553Z,98706.38
2022-10-06T13:08:25.026Z,98720.66
2022-10-06T13:10:51.840Z,98720.81
2022-10-06T13:13:24.193Z,98718.06
2022-10-06T13:15:52.217Z,98718.03
2022-10-06T13:18:19.602Z,98725.91
2022-10-06T13:20:50.412Z,98730.28
2022-10-06T13:23:25.963Z,98724.50
2022-10-06T13:25:57.663Z,98729.22
2022-10-06T13:28:25.972Z,98726.69
2022-10-06T13:30:52.630Z,98723.44
2022-10-06T13:33:19.655Z,98728.78
2022-10-06T13:35:48.335Z,98722.91
2022-10-06T13:38:14.863Z,98730.88
2022-10-06T13:40:44.971Z,98731.72
2022-10-06T13:43:14.600Z,98726.78
2022-10-06T13:45:42.077Z,98728.97
2022-10-06T13:48:15.132Z,98725.47
2022-10-06T13:50:46.042Z,98733.41
2022-10-06T13:53:26.719Z,98732.16
2022-10-06T13:55:53.886Z,98735.34
2022-10-06T13:58:25.311Z,98730.06
2022-10-06T14:00:55.937Z,98727.44
2022-10-06T14:03:23.351Z,98724.75
2022-10-06T14:05:50.887Z,98735.78
2022-10-06T14:08:24.076Z,98736.16
2022-10-06T14:10:52.880Z,98728.81
2022-10-06T14:13:27.415Z,98739.97
2022-10-06T14:15:58.416Z,98736.22
2022-10-06T14:18:26.789Z,98732.41
2022-10-06T14:20:54.403Z,98732.25
2022-10-06T14:23:39.667Z,98729.72
2022-10-06T14:26:06.603Z,98732.38
2022-10-06T14:28:33.183Z,98731.00
2022-10-06T14:30:59.715Z,98738.72
2022-10-06T14:33:26.610Z,98739.25
2022-10-06T14:35:53.038Z,98736.41
2022-10-06T14:38:19.745Z,98746.66
2022-10-06T14:40:46.158Z,98741.59
2022-10-06T14:43:12.923Z,98742.44
2022-10-06T14:45:43.284Z,98732.69
2022-10-06T14:48:10.544Z,98735.25
2022-10-06T14:50:37.456Z,98731.66
2022-10-06T14:53:04.224Z,98737.38
2022-10-06T14:55:30.871Z,98733.34
2022-10-06T14:57:57.654Z,98731.84
2022-10-06T15:00:24.415Z,98734.41
2022-10-06T15:02:50.930Z,98733.44
2022-10-06T15:05:17.429Z,98736.50
2022-10-06T15:08:02.563Z,98743.81
2022-10-06T15:10:30.205Z,98739.28
2022-10-06T15:12:57.074Z,98747.28
2022-10-06T15:15:23.593Z,98748.00
2022-10-06T15:17:50.107Z,98747.38
2022-10-06T15:20:17.285Z,98743.53
2022-10-06T15:22:44.366Z,98746.75
2022-10-06T15:25:33.458Z,98740.38
2022-10-06T15:28:21.272Z,98748.22
2022-10-06T15:30:50.084Z,98744.94
2022-10-06T15:33:17.176Z,98746.97
2022-10-06T15:35:48.725Z,98750.56
2022-10-06T15:38:15.178Z,98750.97
2022-10-06T15:40:41.594Z,98747.91
2022-10-06T15:43:08.011Z,98749.38
2022-10-06T15:45:34.489Z,98747.44
2022-10-06T15:48:00.892Z,98755.28
2022-10-06T15:50:27.330Z,98754.78
2022-10-06T15:52:53.719Z,98753.34
2022-10-06T15:55:20.241Z,98756.91
2022-10-06T15:57:46.646Z,98763.66
2022-10-06T16:00:13.266Z,98759.16
2022-10-06T16:02:40.140Z,98766.78
2022-10-06T16:05:06.758Z,98778.47
2022-10-06T16:07:34.022Z,98782.16
2022-10-06T16:10:00.430Z,98780.63
2022-10-06T16:12:28.471Z,98783.13
2022-10-06T16:14:55.102Z,98775.94
2022-10-06T16:17:21.503Z,98785.84
2022-10-06T16:19:48.042Z,98787.44
2022-10-06T16:22:16.132Z,98790.31
2022-10-06T16:24:42.623Z,98800.94
2022-10-06T16:27:13.001Z,98803.78
2022-10-06T16:29:39.580Z,98807.50
2022-10-06T16:32:06.058Z,98798.88
2022-10-06T16:34:32.894Z,98800.09
2022-10-06T16:36:59.322Z,98805.88
2022-10-06T16:39:25.797Z,98811.34
2022-10-06T16:41:52.291Z,98817.81
2022-10-06T16:44:18.815Z,98820.38
2022-10-06T16:46:45.405Z,98827.88
2022-10-06T16:49:12.155Z,98822.63
2022-10-06T16:51:39.774Z,98835.56
2022-10-06T16:54:07.406Z,98829.78
2022-10-06T16:56:38.089Z,98833.19
2022-10-06T16:59:06.592Z,98834.22
2022-10-06T17:01:34.663Z,98835.91
2022-10-06T17:04:05.394Z,98845.13
2022-10-06T17:06:33.874Z,98847.13
2022-10-06T17:09:00.565Z,98843.59
2022-10-06T17:11:27.231Z,98841.38
2022-10-06T17:13:55.132Z,98855.25
2022-10-06T17:16:23.077Z,98855.94
2022-10-06T17:18:50.469Z,98855.59
2022-10-06T17:21:43.253Z,98859.69
2022-10-06T17:24:05.374Z,98866.13
2022-10-06T17:26:32.729Z,98867.50
2022-10-06T17:29:00.050Z,98867.00
2022-10-06T17:31:32.554Z,98871.72
2022-10-06T17:33:59.454Z,98873.28
2022-10-06T17:36:26.329Z,98871.03
2022-10-06T17:39:02.615Z,98873.16
2022-10-06T17:41:30.555Z,98876.59
2022-10-06T17:43:59.047Z,98875.13
2022-10-06T17:46:26.379Z,98880.56
2022-10-06T17:48:54.272Z,98880.63
2022-10-06T17:51:22.303Z,98882.53
2022-10-06T17:53:49.860Z,98888.25
2022-10-06T17:56:17.797Z,98881.75
2022-10-06T17:58:46.498Z,98881.75
2022-10-06T18:01:14.785Z,98890.28
2022-10-06T18:03:42.510Z,98889.59
2022-10-06T18:06:11.791Z,98896.13
2022-10-06T18:08:39.012Z,98883.53
2022-10-06T18:11:24.629Z,98892.59
2022-10-06T18:13:51.147Z,98888.66
2022-10-06T18:16:25.057Z,98887.03
2022-10-06T18:18:52.617Z,98888.22
2022-10-06T18:21:20.074Z,98878.22
2022-10-06T18:23:47.201Z,98890.44
2022-10-06T18:26:17.186Z,98891.06
2022-10-06T18:28:48.673Z,98884.78
2022-10-06T18:31:16.427Z,98889.59
2022-10-06T18:36:30.647Z,98900.16
2022-10-06T18:38:57.895Z,98899.41
2022-10-06T18:41:27.297Z,98898.00
2022-10-06T18:43:57.824Z,98902.09
2022-10-06T18:46:43.178Z,98901.97
2022-10-06T18:49:15.315Z,98900.63
2022-10-06T18:51:43.730Z,98902.25
2022-10-06T18:54:15.199Z,98907.94
2022-10-06T18:56:42.631Z,98907.88
2022-10-06T18:59:12.150Z,98917.94
2022-10-06T19:01:39.775Z,98908.78
2022-10-06T19:04:09.747Z,98918.41
2022-10-06T19:06:37.740Z,98923.84
2022-10-06T19:09:05.154Z,98915.69
2022-10-06T19:11:41.843Z,98920.25
2022-10-06T19:14:08.715Z,98914.97
2022-10-06T19:16:35.589Z,98920.97
2022-10-06T19:19:10.542Z,98916.63
2022-10-06T19:21:40.829Z,98913.81
2022-10-06T19:24:08.795Z,98910.84
2022-10-06T19:26:35.778Z,98910.56
2022-10-06T19:29:03.828Z,98905.28
2022-10-06T19:31:30.424Z,98908.09
2022-10-06T19:34:01.587Z,98908.31
2022-10-06T19:36:29.175Z,98903.88
2022-10-06T19:38:57.483Z,98907.53
2022-10-06T19:41:43.198Z,98904.38
2022-10-06T19:44:09.805Z,98904.47
2022-10-06T19:46:37.444Z,98909.44
2022-10-06T19:49:05.905Z,98912.38
2022-10-06T19:51:34.096Z,98917.38
2022-10-06T19:54:02.614Z,98916.97
2022-10-06T19:56:30.149Z,98921.22
2022-10-06T19:58:58.402Z,98918.09
2022-10-06T20:01:25.385Z,98925.34
2022-10-06T20:03:51.982Z,98920.25
2022-10-06T20:06:19.511Z,98920.25
2022-10-06T20:08:46.435Z,98921.72
2022-10-06T20:11:14.100Z,98930.28
2022-10-06T20:13:41.235Z,98926.00
2022-10-06T20:16:10.323Z,98916.31
2022-10-06T20:18:43.688Z,98919.44
2022-10-06T20:21:18.283Z,98914.19
2022-10-06T20:23:49.146Z,98917.16
2022-10-06T20:26:17.371Z,98918.75
2022-10-06T20:28:44.224Z,98922.84
2022-10-06T20:31:16.747Z,98915.31
2022-10-06T20:33:46.259Z,98913.59
2022-10-06T20:36:13.281Z,98911.16
2022-10-06T20:38:58.458Z,98918.16
2022-10-06T20:41:25.212Z,98905.19
2022-10-06T20:43:53.928Z,98910.34
2022-10-06T20:46:21.438Z,98909.19
2022-10-06T20:48:49.543Z,98907.47
2022-10-06T20:51:16.466Z,98900.94
2022-10-06T20:53:42.932Z,98911.47
2022-10-06T20:56:09.590Z,98905.78
2022-10-06T20:58:36.264Z,98902.06
2022-10-06T21:01:06.045Z,98900.50
2022-10-06T21:03:33.204Z,98900.66
2022-10-06T21:05:59.866Z,98909.19
2022-10-06T21:08:26.398Z,98908.34
2022-10-06T21:10:56.844Z,98913.34
2022-10-06T21:13:23.285Z,98910.66
2022-10-06T21:15:50.299Z,98909.78
2022-10-06T21:18:17.354Z,98902.38
2022-10-06T21:20:45.342Z,98900.06
2022-10-06T21:23:13.224Z,98900.50
2022-10-06T21:25:39.641Z,98900.78
2022-10-06T21:28:06.328Z,98902.34
2022-10-06T21:30:33.761Z,98896.94
2022-10-06T21:33:00.389Z,98912.88
2022-10-06T21:35:26.989Z,98906.66
2022-10-06T21:37:53.477Z,98906.09
2022-10-06T21:40:19.876Z,98890.97
2022-10-06T21:42:46.281Z,98893.81
2022-10-06T21:45:12.760Z,98895.53
2022-10-06T21:47:39.160Z,98896.53
2022-10-06T21:50:05.740Z,98896.09
2022-10-06T21:52:32.216Z,98889.53
2022-10-06T21:54:58.614Z,98888.63
2022-10-06T21:57:25.047Z,98879.00
2022-10-06T21:59:51.504Z,98880.69
2022-10-06T22:02:17.918Z,98885.06
2022-10-06T22:04:44.372Z,98879.50
2022-10-06T22:07:10.837Z,98880.09
2022-10-06T22:09:37.258Z,98877.50
2022-10-06T22:12:04.719Z,98878.66
2022-10-06T22:14:31.137Z,98868.72
2022-10-06T22:16:57.632Z,98868.53
2022-10-06T22:19:24.149Z,98870.13
2022-10-06T22:21:50.627Z,98859.72
2022-10-06T22:24:18.936Z,98870.38
2022-10-06T22:26:45.845Z,98866.72
2022-10-06T22:29:13.423Z,98863.78
2022-10-06T22:31:41.346Z,98867.41
2022-10-06T22:34:09.524Z,98860.28
2022-10-06T22:36:36.009Z,98853.47
2022-10-06T22:39:03.028Z,98856.06
2022-10-06T22:41:29.742Z,98862.75
2022-10-06T22:43:57.548Z,98856.28
2022-10-06T22:46:25.080Z,98855.72
2022-10-06T22:48:51.744Z,98857.03
2022-10-06T22:51:18.264Z,98853.22
2022-10-06T22:53:44.800Z,98854.44
2022-10-06T22:56:11.201Z,98858.88
2022-10-06T22:58:38.901Z,98856.03
2022-10-06T23:01:09.881Z,98855.97
2022-10-06T23:03:36.434Z,98857.44
2022-10-06T23:06:02.979Z,98857.16
2022-10-06T23:08:34.935Z,98855.72
2022-10-06T23:11:05.984Z,98855.00
2022-10-06T23:13:32.768Z,98846.09
2022-10-06T23:16:07.759Z,98853.41
2022-10-06T23:18:35.470Z,98846.50
2022-10-06T23:21:02.745Z,98848.78
2022-10-06T23:23:29.268Z,98857.38
2022-10-06T23:25:55.724Z,98852.50
2022-10-06T23:28:22.181Z,98848.78
2022-10-06T23:30:48.632Z,98848.97
2022-10-06T23:33:15.041Z,98856.81
2022-10-06T23:35:41.449Z,98844.84
2022-10-06T23:38:10.536Z,98847.66
2022-10-06T23:40:37.400Z,98855.81
2022-10-06T23:43:03.837Z,98857.44
2022-10-06T23:45:30.336Z,98850.84
2022-10-06T23:47:56.856Z,98855.34
2022-10-06T23:50:23.269Z,98850.06
2022-10-06T23:52:49.754Z,98861.22
2022-10-06T23:55:16.169Z,98859.72
2022-10-06T23:57:42.803Z,98859.41
